sensor_id;sensor_type;location;lat;lon;timestamp;P1;durP1;ratioP1;P2;durP2;ratioP2
66402;SDS011;53212;52.112;5.144;2023-03-24T00:00:13;5.30;;;2.80;;
66402;SDS011;53212;52.112;5.144;2023-03-24T00:02:41;4.20;;;2.70;;
66402;SDS011;53212;52.112;5.144;2023-03-24T00:05:11;5.80;;;2.70;;
66402;SDS011;53212;52.112;5.144;2023-03-24T00:07:39;3.90;;;2.80;;
66402;SDS011;53212;52.112;5.144;2023-03-24T00:10:07;4.30;;;2.50;;
66402;SDS011;53212;52.112;5.144;2023-03-24T00:12:38;4.20;;;2.40;;
66402;SDS011;53212;52.112;5.144;2023-03-24T00:15:05;3.40;;;2.40;;
66402;SDS011;53212;52.112;5.144;2023-03-24T00:17:35;4.30;;;2.70;;
66402;SDS011;53212;52.112;5.144;2023-03-24T00:20:03;5.60;;;2.50;;
66402;SDS011;53212;52.112;5.144;2023-03-24T00:22:42;2.80;;;2.30;;
66402;SDS011;53212;52.112;5.144;2023-03-24T00:25:22;4.20;;;2.40;;
66402;SDS011;53212;52.112;5.144;2023-03-24T00:27:52;3.90;;;2.40;;
66402;SDS011;53212;52.112;5.144;2023-03-24T00:30:18;4.70;;;2.80;;
66402;SDS011;53212;52.112;5.144;2023-03-24T00:32:44;3.90;;;2.70;;
66402;SDS011;53212;52.112;5.144;2023-03-24T00:35:12;4.10;;;2.40;;
66402;SDS011;53212;52.112;5.144;2023-03-24T00:37:40;4.50;;;2.50;;
66402;SDS011;53212;52.112;5.144;2023-03-24T00:40:09;4.80;;;2.40;;
66402;SDS011;53212;52.112;5.144;2023-03-24T00:42:40;4.60;;;2.40;;
66402;SDS011;53212;52.112;5.144;2023-03-24T00:45:10;5.60;;;2.40;;
66402;SDS011;53212;52.112;5.144;2023-03-24T00:47:39;3.30;;;2.30;;
66402;SDS011;53212;52.112;5.144;2023-03-24T00:50:08;4.10;;;2.60;;
66402;SDS011;53212;52.112;5.144;2023-03-24T00:52:39;3.70;;;2.40;;
66402;SDS011;53212;52.112;5.144;2023-03-24T00:55:08;3.50;;;2.20;;
66402;SDS011;53212;52.112;5.144;2023-03-24T00:57:38;7.40;;;3.00;;
66402;SDS011;53212;52.112;5.144;2023-03-24T01:00:06;2.90;;;2.40;;
66402;SDS011;53212;52.112;5.144;2023-03-24T01:02:48;3.20;;;2.30;;
66402;SDS011;53212;52.112;5.144;2023-03-24T01:05:24;4.10;;;2.30;;
66402;SDS011;53212;52.112;5.144;2023-03-24T01:07:52;4.90;;;2.40;;
66402;SDS011;53212;52.112;5.144;2023-03-24T01:10:27;4.00;;;2.70;;
66402;SDS011;53212;52.112;5.144;2023-03-24T01:12:57;4.20;;;2.50;;
66402;SDS011;53212;52.112;5.144;2023-03-24T01:15:32;3.60;;;2.30;;
66402;SDS011;53212;52.112;5.144;2023-03-24T01:17:58;3.60;;;2.40;;
66402;SDS011;53212;52.112;5.144;2023-03-24T01:20:28;2.50;;;2.20;;
66402;SDS011;53212;52.112;5.144;2023-03-24T01:23:02;4.50;;;2.90;;
66402;SDS011;53212;52.112;5.144;2023-03-24T01:25:29;3.20;;;2.60;;
66402;SDS011;53212;52.112;5.144;2023-03-24T01:27:55;4.80;;;2.50;;
66402;SDS011;53212;52.112;5.144;2023-03-24T01:30:23;4.10;;;2.50;;
66402;SDS011;53212;52.112;5.144;2023-03-24T01:32:51;2.70;;;2.20;;
66402;SDS011;53212;52.112;5.144;2023-03-24T01:35:17;2.90;;;2.20;;
66402;SDS011;53212;52.112;5.144;2023-03-24T01:37:44;2.80;;;2.40;;
66402;SDS011;53212;52.112;5.144;2023-03-24T01:40:18;2.60;;;2.10;;
66402;SDS011;53212;52.112;5.144;2023-03-24T01:42:48;3.90;;;2.40;;
66402;SDS011;53212;52.112;5.144;2023-03-24T01:48:50;2.90;;;2.10;;
66402;SDS011;53212;52.112;5.144;2023-03-24T01:51:25;3.60;;;2.20;;
66402;SDS011;53212;52.112;5.144;2023-03-24T01:54:21;3.70;;;2.60;;
66402;SDS011;53212;52.112;5.144;2023-03-24T01:57:04;4.30;;;2.60;;
66402;SDS011;53212;52.112;5.144;2023-03-24T01:59:35;2.40;;;2.20;;
66402;SDS011;53212;52.112;5.144;2023-03-24T02:02:03;2.70;;;2.40;;
66402;SDS011;53212;52.112;5.144;2023-03-24T02:04:38;2.90;;;2.20;;
66402;SDS011;53212;52.112;5.144;2023-03-24T02:09:59;2.90;;;2.40;;
66402;SDS011;53212;52.112;5.144;2023-03-24T02:12:28;3.40;;;2.40;;
66402;SDS011;53212;52.112;5.144;2023-03-24T02:14:56;2.50;;;2.30;;
66402;SDS011;53212;52.112;5.144;2023-03-24T02:37:52;1.40;;;1.10;;
66402;SDS011;53212;52.112;5.144;2023-03-24T02:46:11;1.80;;;1.10;;
66402;SDS011;53212;52.112;5.144;2023-03-24T02:49:10;3.70;;;1.50;;
66402;SDS011;53212;52.112;5.144;2023-03-24T02:52:19;5.20;;;1.50;;
66402;SDS011;53212;52.112;5.144;2023-03-24T02:55:23;3.70;;;1.40;;
66402;SDS011;53212;52.112;5.144;2023-03-24T02:58:01;3.10;;;1.40;;
66402;SDS011;53212;52.112;5.144;2023-03-24T03:00:34;5.70;;;1.40;;
66402;SDS011;53212;52.112;5.144;2023-03-24T03:03:12;3.40;;;1.30;;
66402;SDS011;53212;52.112;5.144;2023-03-24T03:06:01;5.50;;;1.70;;
66402;SDS011;53212;52.112;5.144;2023-03-24T03:08:31;4.00;;;1.60;;
66402;SDS011;53212;52.112;5.144;2023-03-24T03:10:58;5.40;;;1.60;;
66402;SDS011;53212;52.112;5.144;2023-03-24T03:13:37;5.10;;;1.50;;
66402;SDS011;53212;52.112;5.144;2023-03-24T03:16:17;8.20;;;1.60;;
66402;SDS011;53212;52.112;5.144;2023-03-24T03:18:57;3.60;;;1.80;;
66402;SDS011;53212;52.112;5.144;2023-03-24T03:21:30;5.50;;;1.80;;
66402;SDS011;53212;52.112;5.144;2023-03-24T03:24:10;3.10;;;1.40;;
66402;SDS011;53212;52.112;5.144;2023-03-24T03:26:39;5.60;;;1.80;;
66402;SDS011;53212;52.112;5.144;2023-03-24T03:29:10;6.50;;;1.80;;
66402;SDS011;53212;52.112;5.144;2023-03-24T03:31:47;4.90;;;1.90;;
66402;SDS011;53212;52.112;5.144;2023-03-24T03:34:37;9.20;;;1.80;;
66402;SDS011;53212;52.112;5.144;2023-03-24T03:40:08;6.00;;;2.00;;
66402;SDS011;53212;52.112;5.144;2023-03-24T03:42:40;5.40;;;2.10;;
66402;SDS011;53212;52.112;5.144;2023-03-24T03:45:09;7.50;;;2.10;;
66402;SDS011;53212;52.112;5.144;2023-03-24T03:47:35;5.30;;;1.70;;
66402;SDS011;53212;52.112;5.144;2023-03-24T03:50:03;7.70;;;2.00;;
66402;SDS011;53212;52.112;5.144;2023-03-24T03:52:29;6.20;;;2.00;;
66402;SDS011;53212;52.112;5.144;2023-03-24T03:54:54;7.00;;;2.00;;
66402;SDS011;53212;52.112;5.144;2023-03-24T03:57:20;4.50;;;1.70;;
66402;SDS011;53212;52.112;5.144;2023-03-24T03:59:47;7.30;;;2.50;;
66402;SDS011;53212;52.112;5.144;2023-03-24T04:16:48;6.90;;;2.70;;
66402;SDS011;53212;52.112;5.144;2023-03-24T04:22:23;6.10;;;2.10;;
66402;SDS011;53212;52.112;5.144;2023-03-24T04:27:45;10.90;;;2.90;;
66402;SDS011;53212;52.112;5.144;2023-03-24T04:30:41;10.80;;;3.20;;
66402;SDS011;53212;52.112;5.144;2023-03-24T04:33:28;8.60;;;2.60;;
66402;SDS011;53212;52.112;5.144;2023-03-24T04:38:49;9.30;;;2.60;;
66402;SDS011;53212;52.112;5.144;2023-03-24T04:41:21;8.80;;;2.80;;
66402;SDS011;53212;52.112;5.144;2023-03-24T04:43:50;9.30;;;3.20;;
66402;SDS011;53212;52.112;5.144;2023-03-24T04:46:19;11.80;;;2.60;;
66402;SDS011;53212;52.112;5.144;2023-03-24T04:48:46;11.30;;;3.30;;
66402;SDS011;53212;52.112;5.144;2023-03-24T04:51:15;11.40;;;2.90;;
66402;SDS011;53212;52.112;5.144;2023-03-24T04:53:43;12.50;;;3.30;;
66402;SDS011;53212;52.112;5.144;2023-03-24T04:59:07;12.20;;;2.90;;
66402;SDS011;53212;52.112;5.144;2023-03-24T05:01:33;12.30;;;3.00;;
66402;SDS011;53212;52.112;5.144;2023-03-24T05:04:02;15.60;;;3.80;;
66402;SDS011;53212;52.112;5.144;2023-03-24T05:06:28;9.30;;;3.00;;
66402;SDS011;53212;52.112;5.144;2023-03-24T05:08:54;11.20;;;2.90;;
66402;SDS011;53212;52.112;5.144;2023-03-24T05:11:22;18.50;;;3.30;;
66402;SDS011;53212;52.112;5.144;2023-03-24T05:13:48;11.80;;;3.00;;
66402;SDS011;53212;52.112;5.144;2023-03-24T05:16:14;11.50;;;3.40;;
66402;SDS011;53212;52.112;5.144;2023-03-24T05:18:40;12.70;;;3.30;;
66402;SDS011;53212;52.112;5.144;2023-03-24T05:21:05;16.30;;;3.60;;
66402;SDS011;53212;52.112;5.144;2023-03-24T05:23:31;16.50;;;3.80;;
66402;SDS011;53212;52.112;5.144;2023-03-24T05:25:56;18.60;;;3.90;;
66402;SDS011;53212;52.112;5.144;2023-03-24T05:28:21;15.90;;;3.60;;
66402;SDS011;53212;52.112;5.144;2023-03-24T05:30:47;18.60;;;4.40;;
66402;SDS011;53212;52.112;5.144;2023-03-24T05:33:12;14.20;;;3.30;;
66402;SDS011;53212;52.112;5.144;2023-03-24T05:35:38;16.10;;;4.10;;
66402;SDS011;53212;52.112;5.144;2023-03-24T05:38:03;13.70;;;3.20;;
66402;SDS011;53212;52.112;5.144;2023-03-24T05:40:29;15.60;;;4.50;;
66402;SDS011;53212;52.112;5.144;2023-03-24T05:42:54;15.00;;;3.30;;
66402;SDS011;53212;52.112;5.144;2023-03-24T05:45:20;14.40;;;3.90;;
66402;SDS011;53212;52.112;5.144;2023-03-24T05:47:46;19.90;;;4.10;;
66402;SDS011;53212;52.112;5.144;2023-03-24T05:50:12;23.10;;;4.70;;
66402;SDS011;53212;52.112;5.144;2023-03-24T05:52:37;11.90;;;3.00;;
66402;SDS011;53212;52.112;5.144;2023-03-24T05:55:03;16.80;;;4.20;;
66402;SDS011;53212;52.112;5.144;2023-03-24T05:57:29;18.80;;;4.40;;
66402;SDS011;53212;52.112;5.144;2023-03-24T05:59:56;20.90;;;4.40;;
66402;SDS011;53212;52.112;5.144;2023-03-24T06:02:22;14.90;;;3.20;;
66402;SDS011;53212;52.112;5.144;2023-03-24T06:04:49;15.60;;;3.80;;
66402;SDS011;53212;52.112;5.144;2023-03-24T06:17:56;15.30;;;2.80;;
66402;SDS011;53212;52.112;5.144;2023-03-24T06:20:22;13.80;;;3.30;;
66402;SDS011;53212;52.112;5.144;2023-03-24T06:22:47;13.00;;;3.60;;
66402;SDS011;53212;52.112;5.144;2023-03-24T06:25:16;13.00;;;3.40;;
66402;SDS011;53212;52.112;5.144;2023-03-24T06:27:45;12.90;;;3.10;;
66402;SDS011;53212;52.112;5.144;2023-03-24T06:30:15;15.80;;;3.50;;
66402;SDS011;53212;52.112;5.144;2023-03-24T06:32:42;13.20;;;3.50;;
66402;SDS011;53212;52.112;5.144;2023-03-24T06:35:11;11.90;;;2.60;;
66402;SDS011;53212;52.112;5.144;2023-03-24T06:37:38;13.60;;;3.40;;
66402;SDS011;53212;52.112;5.144;2023-03-24T06:40:04;9.40;;;2.90;;
66402;SDS011;53212;52.112;5.144;2023-03-24T06:42:31;14.30;;;3.60;;
66402;SDS011;53212;52.112;5.144;2023-03-24T06:44:56;14.10;;;3.50;;
66402;SDS011;53212;52.112;5.144;2023-03-24T06:47:22;13.60;;;3.40;;
66402;SDS011;53212;52.112;5.144;2023-03-24T06:49:47;11.00;;;3.00;;
66402;SDS011;53212;52.112;5.144;2023-03-24T06:52:13;15.10;;;3.10;;
66402;SDS011;53212;52.112;5.144;2023-03-24T06:54:38;11.50;;;3.10;;
66402;SDS011;53212;52.112;5.144;2023-03-24T06:57:04;12.90;;;3.10;;
66402;SDS011;53212;52.112;5.144;2023-03-24T06:59:29;12.50;;;3.00;;
66402;SDS011;53212;52.112;5.144;2023-03-24T07:01:55;13.10;;;2.90;;
66402;SDS011;53212;52.112;5.144;2023-03-24T07:04:20;11.30;;;3.10;;
66402;SDS011;53212;52.112;5.144;2023-03-24T07:06:50;12.30;;;3.20;;
66402;SDS011;53212;52.112;5.144;2023-03-24T07:09:15;10.00;;;2.70;;
66402;SDS011;53212;52.112;5.144;2023-03-24T07:11:41;14.10;;;2.90;;
66402;SDS011;53212;52.112;5.144;2023-03-24T07:14:07;14.00;;;3.30;;
66402;SDS011;53212;52.112;5.144;2023-03-24T07:16:32;11.70;;;2.80;;
66402;SDS011;53212;52.112;5.144;2023-03-24T07:18:58;13.20;;;3.20;;
66402;SDS011;53212;52.112;5.144;2023-03-24T07:21:23;11.00;;;3.00;;
66402;SDS011;53212;52.112;5.144;2023-03-24T07:23:49;10.30;;;2.60;;
66402;SDS011;53212;52.112;5.144;2023-03-24T07:26:14;10.20;;;2.50;;
66402;SDS011;53212;52.112;5.144;2023-03-24T07:28:40;11.80;;;3.10;;
66402;SDS011;53212;52.112;5.144;2023-03-24T07:31:06;16.00;;;3.60;;
66402;SDS011;53212;52.112;5.144;2023-03-24T07:33:35;9.80;;;2.90;;
66402;SDS011;53212;52.112;5.144;2023-03-24T07:36:02;12.10;;;3.10;;
66402;SDS011;53212;52.112;5.144;2023-03-24T07:38:28;14.00;;;3.60;;
66402;SDS011;53212;52.112;5.144;2023-03-24T07:40:53;10.90;;;3.20;;
66402;SDS011;53212;52.112;5.144;2023-03-24T07:43:19;8.80;;;2.80;;
66402;SDS011;53212;52.112;5.144;2023-03-24T07:45:46;16.40;;;3.30;;
66402;SDS011;53212;52.112;5.144;2023-03-24T07:48:11;9.40;;;2.80;;
66402;SDS011;53212;52.112;5.144;2023-03-24T07:50:37;11.40;;;2.60;;
66402;SDS011;53212;52.112;5.144;2023-03-24T07:53:02;10.70;;;3.00;;
66402;SDS011;53212;52.112;5.144;2023-03-24T07:55:29;9.40;;;2.60;;
66402;SDS011;53212;52.112;5.144;2023-03-24T07:57:54;9.90;;;3.10;;
66402;SDS011;53212;52.112;5.144;2023-03-24T08:00:21;9.50;;;2.50;;
66402;SDS011;53212;52.112;5.144;2023-03-24T08:02:52;11.80;;;3.10;;
66402;SDS011;53212;52.112;5.144;2023-03-24T08:05:18;10.30;;;2.90;;
66402;SDS011;53212;52.112;5.144;2023-03-24T08:07:48;6.00;;;2.10;;
66402;SDS011;53212;52.112;5.144;2023-03-24T08:10:18;12.40;;;3.00;;
66402;SDS011;53212;52.112;5.144;2023-03-24T08:12:47;10.00;;;2.70;;
66402;SDS011;53212;52.112;5.144;2023-03-24T08:15:12;11.80;;;2.80;;
66402;SDS011;53212;52.112;5.144;2023-03-24T08:17:38;10.60;;;2.40;;
66402;SDS011;53212;52.112;5.144;2023-03-24T08:20:07;11.90;;;3.40;;
66402;SDS011;53212;52.112;5.144;2023-03-24T08:22:42;12.60;;;3.20;;
66402;SDS011;53212;52.112;5.144;2023-03-24T08:25:14;10.70;;;2.70;;
66402;SDS011;53212;52.112;5.144;2023-03-24T08:27:41;7.30;;;2.70;;
66402;SDS011;53212;52.112;5.144;2023-03-24T08:30:10;10.80;;;2.70;;
66402;SDS011;53212;52.112;5.144;2023-03-24T08:32:55;13.70;;;3.50;;
66402;SDS011;53212;52.112;5.144;2023-03-24T08:35:28;7.80;;;2.50;;
66402;SDS011;53212;52.112;5.144;2023-03-24T08:37:55;10.30;;;3.10;;
66402;SDS011;53212;52.112;5.144;2023-03-24T08:40:25;9.80;;;2.90;;
66402;SDS011;53212;52.112;5.144;2023-03-24T08:42:54;11.30;;;3.00;;
66402;SDS011;53212;52.112;5.144;2023-03-24T08:45:26;9.70;;;3.20;;
66402;SDS011;53212;52.112;5.144;2023-03-24T08:47:55;14.60;;;2.90;;
66402;SDS011;53212;52.112;5.144;2023-03-24T08:50:24;10.10;;;3.30;;
66402;SDS011;53212;52.112;5.144;2023-03-24T08:52:52;12.00;;;3.10;;
66402;SDS011;53212;52.112;5.144;2023-03-24T08:55:19;12.20;;;3.00;;
66402;SDS011;53212;52.112;5.144;2023-03-24T08:57:45;8.60;;;2.60;;
66402;SDS011;53212;52.112;5.144;2023-03-24T09:00:12;12.30;;;3.30;;
66402;SDS011;53212;52.112;5.144;2023-03-24T09:02:50;10.10;;;2.60;;
66402;SDS011;53212;52.112;5.144;2023-03-24T09:05:18;12.90;;;2.90;;
66402;SDS011;53212;52.112;5.144;2023-03-24T09:07:46;10.10;;;2.50;;
66402;SDS011;53212;52.112;5.144;2023-03-24T09:10:14;8.70;;;2.40;;
66402;SDS011;53212;52.112;5.144;2023-03-24T09:12:40;11.10;;;2.60;;
66402;SDS011;53212;52.112;5.144;2023-03-24T09:15:09;8.10;;;2.30;;
66402;SDS011;53212;52.112;5.144;2023-03-24T09:17:36;10.50;;;2.90;;
66402;SDS011;53212;52.112;5.144;2023-03-24T09:20:06;10.60;;;3.00;;
66402;SDS011;53212;52.112;5.144;2023-03-24T09:22:38;10.00;;;2.70;;
66402;SDS011;53212;52.112;5.144;2023-03-24T09:25:05;9.00;;;2.70;;
66402;SDS011;53212;52.112;5.144;2023-03-24T09:27:32;9.50;;;2.60;;
66402;SDS011;53212;52.112;5.144;2023-03-24T09:29:57;8.20;;;2.90;;
66402;SDS011;53212;52.112;5.144;2023-03-24T09:32:23;6.70;;;2.40;;
66402;SDS011;53212;52.112;5.144;2023-03-24T09:34:48;6.50;;;2.50;;
66402;SDS011;53212;52.112;5.144;2023-03-24T09:37:14;8.80;;;2.60;;
66402;SDS011;53212;52.112;5.144;2023-03-24T09:39:39;9.00;;;2.50;;
66402;SDS011;53212;52.112;5.144;2023-03-24T09:42:05;12.20;;;2.90;;
66402;SDS011;53212;52.112;5.144;2023-03-24T09:44:36;10.40;;;2.40;;
66402;SDS011;53212;52.112;5.144;2023-03-24T09:47:19;8.60;;;2.90;;
66402;SDS011;53212;52.112;5.144;2023-03-24T09:49:46;8.10;;;2.50;;
66402;SDS011;53212;52.112;5.144;2023-03-24T09:52:14;10.40;;;2.90;;
66402;SDS011;53212;52.112;5.144;2023-03-24T09:54:53;5.80;;;2.10;;
66402;SDS011;53212;52.112;5.144;2023-03-24T09:57:42;9.20;;;2.30;;
66402;SDS011;53212;52.112;5.144;2023-03-24T10:00:24;11.20;;;2.80;;
66402;SDS011;53212;52.112;5.144;2023-03-24T10:02:52;15.30;;;3.30;;
66402;SDS011;53212;52.112;5.144;2023-03-24T10:05:37;9.10;;;2.50;;
66402;SDS011;53212;52.112;5.144;2023-03-24T10:13:28;9.70;;;3.10;;
66402;SDS011;53212;52.112;5.144;2023-03-24T10:16:35;9.40;;;2.50;;
66402;SDS011;53212;52.112;5.144;2023-03-24T10:25:22;9.30;;;2.30;;
66402;SDS011;53212;52.112;5.144;2023-03-24T10:28:22;9.30;;;2.30;;
66402;SDS011;53212;52.112;5.144;2023-03-24T10:30:53;10.50;;;2.60;;
66402;SDS011;53212;52.112;5.144;2023-03-24T10:33:21;9.10;;;2.10;;
66402;SDS011;53212;52.112;5.144;2023-03-24T10:35:59;10.70;;;2.60;;
66402;SDS011;53212;52.112;5.144;2023-03-24T10:38:30;8.10;;;2.10;;
66402;SDS011;53212;52.112;5.144;2023-03-24T10:40:55;9.90;;;2.40;;
66402;SDS011;53212;52.112;5.144;2023-03-24T10:43:21;12.80;;;3.10;;
66402;SDS011;53212;52.112;5.144;2023-03-24T10:45:52;8.80;;;2.40;;
66402;SDS011;53212;52.112;5.144;2023-03-24T10:51:18;9.60;;;2.50;;
66402;SDS011;53212;52.112;5.144;2023-03-24T10:53:46;6.00;;;2.00;;
66402;SDS011;53212;52.112;5.144;2023-03-24T10:56:37;8.10;;;2.60;;
66402;SDS011;53212;52.112;5.144;2023-03-24T11:01:47;8.00;;;2.70;;
66402;SDS011;53212;52.112;5.144;2023-03-24T11:04:14;10.90;;;2.60;;
66402;SDS011;53212;52.112;5.144;2023-03-24T11:12:37;9.70;;;2.70;;
66402;SDS011;53212;52.112;5.144;2023-03-24T11:15:21;8.70;;;2.70;;
66402;SDS011;53212;52.112;5.144;2023-03-24T11:17:54;8.50;;;3.00;;
66402;SDS011;53212;52.112;5.144;2023-03-24T11:20:46;10.20;;;2.60;;
66402;SDS011;53212;52.112;5.144;2023-03-24T11:28:48;6.50;;;2.10;;
66402;SDS011;53212;52.112;5.144;2023-03-24T11:31:24;8.00;;;2.40;;
66402;SDS011;53212;52.112;5.144;2023-03-24T11:34:14;9.80;;;2.50;;
66402;SDS011;53212;52.112;5.144;2023-03-24T11:36:59;8.70;;;2.40;;
66402;SDS011;53212;52.112;5.144;2023-03-24T11:39:30;4.60;;;2.40;;
66402;SDS011;53212;52.112;5.144;2023-03-24T11:47:32;9.60;;;2.20;;
66402;SDS011;53212;52.112;5.144;2023-03-24T11:55:15;5.80;;;1.80;;
66402;SDS011;53212;52.112;5.144;2023-03-24T12:03:12;9.30;;;2.60;;
66402;SDS011;53212;52.112;5.144;2023-03-24T12:05:46;7.40;;;2.40;;
66402;SDS011;53212;52.112;5.144;2023-03-24T12:12:04;8.50;;;1.90;;
66402;SDS011;53212;52.112;5.144;2023-03-24T12:26:32;2.80;;;1.20;;
66402;SDS011;53212;52.112;5.144;2023-03-24T12:31:55;5.60;;;1.80;;
66402;SDS011;53212;52.112;5.144;2023-03-24T12:37:51;9.00;;;1.90;;
66402;SDS011;53212;52.112;5.144;2023-03-24T12:55:50;7.30;;;2.00;;
66402;SDS011;53212;52.112;5.144;2023-03-24T12:58:44;5.60;;;1.70;;
66402;SDS011;53212;52.112;5.144;2023-03-24T13:01:28;5.00;;;1.70;;
66402;SDS011;53212;52.112;5.144;2023-03-24T13:04:28;5.80;;;1.60;;
66402;SDS011;53212;52.112;5.144;2023-03-24T13:09:53;6.80;;;1.50;;
66402;SDS011;53212;52.112;5.144;2023-03-24T13:15:15;9.40;;;1.90;;
66402;SDS011;53212;52.112;5.144;2023-03-24T13:20:41;6.20;;;1.70;;
66402;SDS011;53212;52.112;5.144;2023-03-24T13:31:49;7.80;;;2.10;;
66402;SDS011;53212;52.112;5.144;2023-03-24T13:34:28;6.80;;;2.00;;
66402;SDS011;53212;52.112;5.144;2023-03-24T13:37:05;7.00;;;1.90;;
66402;SDS011;53212;52.112;5.144;2023-03-24T13:39:52;7.10;;;1.90;;
66402;SDS011;53212;52.112;5.144;2023-03-24T13:42:34;9.10;;;2.10;;
66402;SDS011;53212;52.112;5.144;2023-03-24T13:50:40;6.80;;;1.60;;
66402;SDS011;53212;52.112;5.144;2023-03-24T13:53:15;9.40;;;2.60;;
66402;SDS011;53212;52.112;5.144;2023-03-24T13:55:50;8.40;;;2.00;;
66402;SDS011;53212;52.112;5.144;2023-03-24T13:58:20;7.10;;;1.80;;
66402;SDS011;53212;52.112;5.144;2023-03-24T14:03:39;5.20;;;1.90;;
66402;SDS011;53212;52.112;5.144;2023-03-24T14:06:08;7.00;;;2.10;;
66402;SDS011;53212;52.112;5.144;2023-03-24T14:11:39;6.80;;;1.50;;
66402;SDS011;53212;52.112;5.144;2023-03-24T14:14:18;3.80;;;1.50;;
66402;SDS011;53212;52.112;5.144;2023-03-24T14:17:05;4.30;;;1.80;;
66402;SDS011;53212;52.112;5.144;2023-03-24T14:19:38;3.20;;;1.40;;
66402;SDS011;53212;52.112;5.144;2023-03-24T14:22:26;5.50;;;1.30;;
66402;SDS011;53212;52.112;5.144;2023-03-24T14:27:42;6.60;;;1.80;;
66402;SDS011;53212;52.112;5.144;2023-03-24T14:33:00;5.80;;;1.70;;
66402;SDS011;53212;52.112;5.144;2023-03-24T14:35:32;6.50;;;1.40;;
66402;SDS011;53212;52.112;5.144;2023-03-24T14:38:00;3.40;;;1.50;;
66402;SDS011;53212;52.112;5.144;2023-03-24T14:40:47;6.20;;;1.90;;
66402;SDS011;53212;52.112;5.144;2023-03-24T14:48:27;6.70;;;1.90;;
66402;SDS011;53212;52.112;5.144;2023-03-24T14:50:59;8.20;;;1.90;;
66402;SDS011;53212;52.112;5.144;2023-03-24T14:53:30;5.50;;;1.80;;
66402;SDS011;53212;52.112;5.144;2023-03-24T14:56:02;7.70;;;1.90;;
66402;SDS011;53212;52.112;5.144;2023-03-24T14:58:36;4.60;;;1.70;;
66402;SDS011;53212;52.112;5.144;2023-03-24T15:01:08;5.90;;;1.80;;
66402;SDS011;53212;52.112;5.144;2023-03-24T15:03:56;6.10;;;1.50;;
66402;SDS011;53212;52.112;5.144;2023-03-24T15:06:26;6.90;;;2.20;;
66402;SDS011;53212;52.112;5.144;2023-03-24T15:08:53;5.30;;;1.80;;
66402;SDS011;53212;52.112;5.144;2023-03-24T15:11:36;9.80;;;2.00;;
66402;SDS011;53212;52.112;5.144;2023-03-24T15:14:04;8.70;;;1.90;;
66402;SDS011;53212;52.112;5.144;2023-03-24T15:16:32;7.30;;;1.90;;
66402;SDS011;53212;52.112;5.144;2023-03-24T15:19:09;8.80;;;2.20;;
66402;SDS011;53212;52.112;5.144;2023-03-24T15:21:49;7.50;;;2.20;;
66402;SDS011;53212;52.112;5.144;2023-03-24T15:24:35;7.30;;;2.10;;
66402;SDS011;53212;52.112;5.144;2023-03-24T15:29:40;10.00;;;2.10;;
66402;SDS011;53212;52.112;5.144;2023-03-24T15:32:19;10.00;;;2.40;;
66402;SDS011;53212;52.112;5.144;2023-03-24T15:34:56;7.50;;;2.10;;
66402;SDS011;53212;52.112;5.144;2023-03-24T15:37:38;7.10;;;2.30;;
66402;SDS011;53212;52.112;5.144;2023-03-24T15:40:50;8.40;;;2.60;;
66402;SDS011;53212;52.112;5.144;2023-03-24T15:43:20;7.00;;;2.30;;
66402;SDS011;53212;52.112;5.144;2023-03-24T15:45:50;10.40;;;2.80;;
66402;SDS011;53212;52.112;5.144;2023-03-24T15:48:20;10.30;;;2.80;;
66402;SDS011;53212;52.112;5.144;2023-03-24T15:50:58;9.30;;;2.30;;
66402;SDS011;53212;52.112;5.144;2023-03-24T15:53:54;8.30;;;2.00;;
66402;SDS011;53212;52.112;5.144;2023-03-24T16:01:26;8.70;;;2.40;;
66402;SDS011;53212;52.112;5.144;2023-03-24T16:04:00;8.30;;;2.10;;
66402;SDS011;53212;52.112;5.144;2023-03-24T16:06:32;8.30;;;2.70;;
66402;SDS011;53212;52.112;5.144;2023-03-24T16:09:07;8.80;;;2.10;;
66402;SDS011;53212;52.112;5.144;2023-03-24T16:11:38;13.60;;;2.50;;
66402;SDS011;53212;52.112;5.144;2023-03-24T16:14:25;11.90;;;2.40;;
66402;SDS011;53212;52.112;5.144;2023-03-24T16:16:59;6.60;;;1.80;;
66402;SDS011;53212;52.112;5.144;2023-03-24T16:19:27;7.90;;;2.10;;
66402;SDS011;53212;52.112;5.144;2023-03-24T16:21:53;12.10;;;2.60;;
66402;SDS011;53212;52.112;5.144;2023-03-24T16:24:18;6.90;;;2.20;;
66402;SDS011;53212;52.112;5.144;2023-03-24T16:26:44;11.10;;;3.30;;
66402;SDS011;53212;52.112;5.144;2023-03-24T16:31:42;10.40;;;2.40;;
66402;SDS011;53212;52.112;5.144;2023-03-24T16:34:09;8.90;;;2.40;;
66402;SDS011;53212;52.112;5.144;2023-03-24T16:36:35;10.50;;;2.80;;
66402;SDS011;53212;52.112;5.144;2023-03-24T16:39:01;6.50;;;1.90;;
66402;SDS011;53212;52.112;5.144;2023-03-24T16:41:27;8.70;;;2.40;;
66402;SDS011;53212;52.112;5.144;2023-03-24T16:43:53;7.50;;;2.10;;
66402;SDS011;53212;52.112;5.144;2023-03-24T16:48:50;12.50;;;2.50;;
66402;SDS011;53212;52.112;5.144;2023-03-24T16:51:16;8.00;;;2.10;;
66402;SDS011;53212;52.112;5.144;2023-03-24T16:53:42;6.90;;;2.00;;
66402;SDS011;53212;52.112;5.144;2023-03-24T16:56:11;7.60;;;2.30;;
66402;SDS011;53212;52.112;5.144;2023-03-24T16:58:38;8.10;;;2.30;;
66402;SDS011;53212;52.112;5.144;2023-03-24T17:01:15;9.70;;;2.40;;
66402;SDS011;53212;52.112;5.144;2023-03-24T17:03:58;10.00;;;2.50;;
66402;SDS011;53212;52.112;5.144;2023-03-24T17:06:34;9.70;;;2.60;;
66402;SDS011;53212;52.112;5.144;2023-03-24T17:09:01;9.40;;;2.40;;
66402;SDS011;53212;52.112;5.144;2023-03-24T17:11:51;6.50;;;2.10;;
66402;SDS011;53212;52.112;5.144;2023-03-24T17:14:19;8.30;;;2.30;;
66402;SDS011;53212;52.112;5.144;2023-03-24T17:16:46;8.60;;;2.50;;
66402;SDS011;53212;52.112;5.144;2023-03-24T17:19:15;8.00;;;2.40;;
66402;SDS011;53212;52.112;5.144;2023-03-24T17:21:44;9.40;;;2.80;;
66402;SDS011;53212;52.112;5.144;2023-03-24T17:24:12;9.40;;;2.40;;
66402;SDS011;53212;52.112;5.144;2023-03-24T17:26:39;10.20;;;2.30;;
66402;SDS011;53212;52.112;5.144;2023-03-24T17:29:05;10.50;;;2.60;;
66402;SDS011;53212;52.112;5.144;2023-03-24T17:31:33;9.20;;;2.60;;
66402;SDS011;53212;52.112;5.144;2023-03-24T17:33:58;10.10;;;2.50;;
66402;SDS011;53212;52.112;5.144;2023-03-24T17:36:24;7.20;;;2.30;;
66402;SDS011;53212;52.112;5.144;2023-03-24T17:38:49;7.00;;;2.30;;
66402;SDS011;53212;52.112;5.144;2023-03-24T17:41:15;11.40;;;2.40;;
66402;SDS011;53212;52.112;5.144;2023-03-24T17:43:44;8.20;;;2.50;;
66402;SDS011;53212;52.112;5.144;2023-03-24T17:46:11;10.10;;;2.70;;
66402;SDS011;53212;52.112;5.144;2023-03-24T17:48:37;11.00;;;3.00;;
66402;SDS011;53212;52.112;5.144;2023-03-24T17:51:03;10.60;;;3.00;;
66402;SDS011;53212;52.112;5.144;2023-03-24T17:53:29;8.60;;;2.50;;
66402;SDS011;53212;52.112;5.144;2023-03-24T17:55:59;11.40;;;3.10;;
66402;SDS011;53212;52.112;5.144;2023-03-24T17:58:30;9.00;;;3.00;;
66402;SDS011;53212;52.112;5.144;2023-03-24T18:00:57;14.60;;;3.50;;
66402;SDS011;53212;52.112;5.144;2023-03-24T18:03:25;12.80;;;3.60;;
66402;SDS011;53212;52.112;5.144;2023-03-24T18:05:52;7.30;;;2.40;;
66402;SDS011;53212;52.112;5.144;2023-03-24T18:08:17;8.80;;;2.20;;
66402;SDS011;53212;52.112;5.144;2023-03-24T18:10:43;10.50;;;2.50;;
66402;SDS011;53212;52.112;5.144;2023-03-24T18:13:08;8.70;;;2.60;;
66402;SDS011;53212;52.112;5.144;2023-03-24T18:15:35;15.20;;;3.30;;
66402;SDS011;53212;52.112;5.144;2023-03-24T18:18:01;9.50;;;2.80;;
66402;SDS011;53212;52.112;5.144;2023-03-24T18:20:27;9.30;;;2.50;;
66402;SDS011;53212;52.112;5.144;2023-03-24T18:22:53;8.30;;;2.60;;
66402;SDS011;53212;52.112;5.144;2023-03-24T18:25:18;12.80;;;2.80;;
66402;SDS011;53212;52.112;5.144;2023-03-24T18:27:44;11.90;;;2.90;;
66402;SDS011;53212;52.112;5.144;2023-03-24T18:30:11;8.10;;;2.60;;
66402;SDS011;53212;52.112;5.144;2023-03-24T18:32:38;10.40;;;3.20;;